createdAt,value
2022-10-09T00:00:34.987Z,78887.19
2022-10-09T00:03:04.084Z,78895.31
2022-10-09T00:05:33.008Z,78872.56
2022-10-09T00:08:02.091Z,78878.50
2022-10-09T00:10:31.200Z,78885.81
2022-10-09T00:13:00.168Z,78885.88
2022-10-09T00:15:29.041Z,78910.94
2022-10-09T00:17:58.071Z,78907.03
2022-10-09T00:20:26.881Z,78908.34
2022-10-09T00:22:56.749Z,78905.03
2022-10-09T00:25:26.131Z,78902.44
2022-10-09T00:27:55.181Z,78905.72
2022-10-09T00:30:24.807Z,78910.56
2022-10-09T00:32:54.603Z,78901.31
2022-10-09T00:35:23.776Z,78916.81
2022-10-09T00:37:52.925Z,78901.97
2022-10-09T00:40:21.899Z,78883.47
2022-10-09T00:42:58.258Z,78903.94
2022-10-09T00:45:28.361Z,78891.97
2022-10-09T00:48:01.774Z,78913.59
2022-10-09T00:50:50.886Z,78912.28
2022-10-09T00:53:23.507Z,78916.41
2022-10-09T00:55:53.376Z,78913.19
2022-10-09T00:58:24.447Z,78909.28
2022-10-09T01:00:54.284Z,78919.91
2022-10-09T01:03:23.057Z,78917.50
2022-10-09T01:06:02.152Z,78909.88
2022-10-09T01:08:48.185Z,78923.03
2022-10-09T01:11:36.235Z,78921.56
2022-10-09T01:14:15.515Z,78923.19
2022-10-09T01:17:10.773Z,78919.13
2022-10-09T01:19:58.665Z,78926.09
2022-10-09T01:23:03.843Z,78923.94
2022-10-09T01:26:00.692Z,78924.97
2022-10-09T01:28:31.600Z,78909.44
2022-10-09T01:31:04.783Z,78928.84
2022-10-09T01:33:34.758Z,78902.13
2022-10-09T01:36:05.889Z,78905.41
2022-10-09T01:38:37.274Z,78930.53
2022-10-09T01:41:44.533Z,78936.69
2022-10-09T01:45:10.425Z,78940.91
2022-10-09T01:47:52.634Z,78933.84
2022-10-09T01:50:31.015Z,78934.06
2022-10-09T01:53:07.986Z,78933.00
2022-10-09T01:56:15.764Z,78943.19
2022-10-09T01:58:59.270Z,78937.28
2022-10-09T02:01:33.508Z,78945.53
2022-10-09T02:04:06.967Z,78937.38
2022-10-09T02:06:37.916Z,78948.78
2022-10-09T02:09:11.625Z,78951.50
2022-10-09T02:11:43.577Z,78944.63
2022-10-09T02:14:12.715Z,78960.22
2022-10-09T02:16:43.359Z,78956.75
2022-10-09T02:19:26.922Z,78957.19
2022-10-09T02:22:01.970Z,78966.41
2022-10-09T02:24:31.438Z,78955.97
2022-10-09T02:27:01.242Z,78961.31
2022-10-09T02:29:30.552Z,78962.41
2022-10-09T02:31:59.629Z,78929.50
2022-10-09T02:34:28.797Z,78965.78
2022-10-09T02:36:57.633Z,78972.41
2022-10-09T02:39:26.926Z,78972.28
2022-10-09T02:41:55.777Z,78971.53
2022-10-09T02:44:24.901Z,78964.22
2022-10-09T02:46:53.993Z,78970.59
2022-10-09T02:49:23.048Z,78964.28
2022-10-09T02:51:51.936Z,78975.28
2022-10-09T02:54:21.262Z,78974.47
2022-10-09T02:56:50.064Z,78974.59
2022-10-09T02:59:19.221Z,78969.38
2022-10-09T03:01:48.212Z,78983.00
2022-10-09T03:04:17.577Z,78968.47
2022-10-09T03:06:46.401Z,78985.41
2022-10-09T03:09:15.592Z,78984.44
2022-10-09T03:11:44.304Z,78994.31
2022-10-09T03:14:13.571Z,78988.47
2022-10-09T03:16:42.456Z,79010.88
2022-10-09T03:19:11.524Z,79002.88
2022-10-09T03:21:40.410Z,79007.47
2022-10-09T03:24:09.969Z,79013.25
2022-10-09T03:26:38.932Z,78994.22
2022-10-09T03:29:07.814Z,79009.06
2022-10-09T03:31:51.934Z,79014.50
2022-10-09T03:34:22.057Z,79022.88
2022-10-09T03:36:51.391Z,78996.69
2022-10-09T03:39:20.405Z,79002.28
2022-10-09T03:41:49.292Z,78999.50
2022-10-09T03:44:18.892Z,79023.59
2022-10-09T03:46:47.843Z,79017.56
2022-10-09T03:49:18.242Z,79004.31
2022-10-09T03:51:47.439Z,79004.78
2022-10-09T03:54:16.496Z,79034.03
2022-10-09T03:56:45.726Z,78998.50
2022-10-09T03:59:14.657Z,79029.00
2022-10-09T04:01:43.724Z,78995.38
2022-10-09T04:04:12.796Z,79015.56
2022-10-09T04:06:41.919Z,79015.84
2022-10-09T04:09:10.936Z,79004.75
2022-10-09T04:11:40.139Z,79020.59
2022-10-09T04:14:08.981Z,79027.59
2022-10-09T04:16:38.392Z,79027.44
2022-10-09T04:19:07.413Z,79017.19
2022-10-09T04:21:36.345Z,79002.09
2022-10-09T04:24:05.772Z,79022.19
2022-10-09T04:26:34.902Z,79036.53
2022-10-09T04:29:03.646Z,79028.09
2022-10-09T04:31:34.184Z,79012.66
2022-10-09T04:34:03.844Z,79031.22
2022-10-09T04:36:33.293Z,79021.47
2022-10-09T04:39:02.358Z,79002.16
2022-10-09T04:41:34.750Z,79011.47
2022-10-09T04:44:07.456Z,79037.94
2022-10-09T04:46:36.347Z,79024.19
2022-10-09T04:49:05.369Z,79027.03
2022-10-09T04:51:34.476Z,79034.38
2022-10-09T04:54:03.751Z,79034.72
2022-10-09T04:56:32.745Z,79022.59
2022-10-09T04:59:01.737Z,79037.72
2022-10-09T05:01:37.087Z,79018.66
2022-10-09T05:04:07.260Z,79026.47
2022-10-09T05:06:36.363Z,79039.41
2022-10-09T05:09:05.543Z,79007.75
2022-10-09T05:11:34.290Z,79012.25
2022-10-09T05:14:03.527Z,79006.16
2022-10-09T05:16:44.746Z,79006.34
2022-10-09T05:19:22.514Z,78998.91
2022-10-09T05:21:51.502Z,79021.59
2022-10-09T05:24:22.495Z,79000.88
2022-10-09T05:26:51.813Z,79028.78
2022-10-09T05:29:21.182Z,79015.91
2022-10-09T05:31:50.468Z,79023.81
2022-10-09T05:34:19.257Z,79013.28
2022-10-09T05:36:48.690Z,78998.56
2022-10-09T05:39:18.249Z,78987.63
2022-10-09T05:41:47.251Z,79009.03
2022-10-09T05:44:16.408Z,78999.69
2022-10-09T05:46:45.902Z,79005.06
2022-10-09T05:49:14.765Z,78995.50
2022-10-09T05:51:46.409Z,79015.84
2022-10-09T05:54:17.966Z,79012.03
2022-10-09T05:56:47.700Z,79018.72
2022-10-09T05:59:20.627Z,79016.16
2022-10-09T06:01:52.905Z,78991.41
2022-10-09T06:04:24.531Z,79003.09
2022-10-09T06:06:54.971Z,79004.41
2022-10-09T06:09:26.448Z,78997.97
2022-10-09T06:11:56.611Z,78994.47
2022-10-09T06:14:26.056Z,79007.78
2022-10-09T06:16:55.952Z,78989.84
2022-10-09T06:19:25.164Z,78995.53
2022-10-09T06:21:53.979Z,79001.53
2022-10-09T06:24:28.612Z,79004.69
2022-10-09T06:26:59.115Z,79007.22
2022-10-09T06:29:28.263Z,78995.94
2022-10-09T06:31:57.463Z,78997.50
2022-10-09T06:34:26.413Z,78990.09
2022-10-09T06:36:56.007Z,79004.59
2022-10-09T06:39:25.089Z,78991.00
2022-10-09T06:41:54.070Z,78971.72
2022-10-09T06:44:39.353Z,78983.44
2022-10-09T06:47:08.340Z,78986.16
2022-10-09T06:49:37.135Z,78986.81
2022-10-09T06:52:06.379Z,78970.91
2022-10-09T06:54:35.276Z,78960.41
2022-10-09T06:57:04.322Z,78977.63
2022-10-09T06:59:33.225Z,78985.22
2022-10-09T07:02:02.430Z,78981.72
2022-10-09T07:04:31.403Z,78972.28
2022-10-09T07:07:00.786Z,78980.66
2022-10-09T07:09:29.592Z,78983.50
2022-10-09T07:11:58.958Z,78970.50
2022-10-09T07:14:27.931Z,78965.16
2022-10-09T07:16:57.003Z,78964.97
2022-10-09T07:19:25.740Z,78956.94
2022-10-09T07:21:54.905Z,78960.09
2022-10-09T07:24:25.636Z,78945.97
2022-10-09T07:26:58.934Z,78967.38
2022-10-09T07:29:28.047Z,78964.72
2022-10-09T07:31:56.778Z,78947.00
2022-10-09T07:34:25.791Z,78939.94
2022-10-09T07:36:54.731Z,78947.63
2022-10-09T07:39:23.873Z,78955.63
2022-10-09T07:41:53.334Z,78920.19
2022-10-09T07:44:22.304Z,78942.66
2022-10-09T07:46:52.675Z,78935.75
2022-10-09T07:49:23.024Z,78934.66
2022-10-09T07:51:52.220Z,78910.03
2022-10-09T07:54:20.944Z,78924.69
2022-10-09T07:56:50.158Z,78915.16
2022-10-09T07:59:18.998Z,78906.81
2022-10-09T08:01:48.021Z,78922.97
2022-10-09T08:04:16.974Z,78906.69
2022-10-09T08:06:45.920Z,78903.41
2022-10-09T08:09:15.009Z,78919.34
2022-10-09T08:11:44.170Z,78904.22
2022-10-09T08:14:19.308Z,78896.25
2022-10-09T08:16:49.358Z,78914.75
2022-10-09T08:19:18.069Z,78892.91
2022-10-09T08:21:47.224Z,78893.59
2022-10-09T08:24:16.176Z,78883.25
2022-10-09T08:26:45.590Z,78884.50
2022-10-09T08:29:17.943Z,78890.44
2022-10-09T08:31:48.137Z,78898.72
2022-10-09T08:34:16.975Z,78880.53
2022-10-09T08:36:46.013Z,78880.47
2022-10-09T08:39:15.477Z,78871.06
2022-10-09T08:41:48.718Z,78863.09
2022-10-09T08:44:41.735Z,78877.06
2022-10-09T08:47:14.256Z,78881.44
2022-10-09T08:49:49.513Z,78880.72
2022-10-09T08:52:23.028Z,78881.31
2022-10-09T08:54:53.895Z,78858.06
2022-10-09T08:57:24.646Z,78871.25
2022-10-09T08:59:53.695Z,78858.19
2022-10-09T09:02:31.592Z,78873.97
2022-10-09T09:05:23.060Z,78855.13
2022-10-09T09:08:36.941Z,78861.41
2022-10-09T09:11:25.088Z,78865.44
2022-10-09T09:14:20.506Z,78849.47
2022-10-09T09:17:04.061Z,78862.63
2022-10-09T09:19:51.342Z,78860.63
2022-10-09T09:22:20.692Z,78862.41
2022-10-09T09:24:58.365Z,78858.72
2022-10-09T09:27:37.820Z,78852.94
2022-10-09T09:30:25.610Z,78861.56
2022-10-09T09:33:12.770Z,78857.81
2022-10-09T09:36:01.286Z,78859.47
2022-10-09T09:38:30.287Z,78833.19
2022-10-09T09:40:59.160Z,78860.84
2022-10-09T09:43:28.966Z,78825.16
2022-10-09T09:46:01.057Z,78842.34
2022-10-09T09:48:46.753Z,78844.72
2022-10-09T09:51:37.088Z,78848.72
2022-10-09T09:54:24.146Z,78827.50
2022-10-09T09:57:12.805Z,78844.19
2022-10-09T09:59:45.111Z,78841.19
2022-10-09T10:02:16.329Z,78836.91
2022-10-09T10:05:10.587Z,78848.84
2022-10-09T10:07:40.539Z,78832.31
2022-10-09T10:10:21.130Z,78823.84
2022-10-09T10:12:54.563Z,78839.91
2022-10-09T10:15:32.814Z,78840.09
2022-10-09T10:18:14.392Z,78834.09
2022-10-09T10:20:48.816Z,78843.25
2022-10-09T10:23:39.123Z,78821.56
2022-10-09T10:26:38.879Z,78832.78
2022-10-09T10:29:33.209Z,78831.66
2022-10-09T10:32:30.160Z,78834.69
2022-10-09T10:35:04.689Z,78843.25
2022-10-09T10:38:00.157Z,78835.59
2022-10-09T10:40:33.868Z,78835.38
2022-10-09T10:43:11.958Z,78835.34
2022-10-09T10:45:41.082Z,78840.09
2022-10-09T10:48:25.787Z,78815.75
2022-10-09T10:51:21.691Z,78821.53
2022-10-09T10:54:21.086Z,78832.69
2022-10-09T10:57:05.972Z,78813.91
2022-10-09T11:00:12.027Z,78831.53
2022-10-09T11:03:08.266Z,78827.09
2022-10-09T11:06:16.103Z,78827.75
2022-10-09T11:08:56.619Z,78831.38
2022-10-09T11:11:49.782Z,78798.47
2022-10-09T11:14:33.029Z,78828.38
2022-10-09T11:17:15.487Z,78830.13
2022-10-09T11:20:03.627Z,78828.16
2022-10-09T11:23:10.661Z,78818.31
2022-10-09T11:26:01.823Z,78816.09
2022-10-09T11:28:40.478Z,78816.25
2022-10-09T11:31:21.247Z,78819.59
2022-10-09T11:33:59.048Z,78832.63
2022-10-09T11:36:48.535Z,78826.97
2022-10-09T11:39:24.939Z,78840.81
2022-10-09T11:41:56.337Z,78839.38
2022-10-09T11:44:37.475Z,78846.81
2022-10-09T11:47:16.849Z,78815.78
2022-10-09T11:49:56.982Z,78844.78
2022-10-09T11:52:36.267Z,78840.97
2022-10-09T11:55:37.971Z,78839.72
2022-10-09T11:58:16.038Z,78845.09
2022-10-09T12:00:47.240Z,78838.41
2022-10-09T12:03:42.920Z,78841.06
2022-10-09T12:06:17.770Z,78836.25
2022-10-09T12:09:09.442Z,78851.56
2022-10-09T12:11:38.563Z,78835.97
2022-10-09T12:14:09.727Z,78854.63
2022-10-09T12:16:48.258Z,78854.59
2022-10-09T12:19:18.931Z,78853.09
2022-10-09T12:22:03.415Z,78860.03
2022-10-09T12:25:00.434Z,78836.00
2022-10-09T12:27:35.981Z,78858.84
2022-10-09T12:30:15.502Z,78861.84
2022-10-09T12:33:29.400Z,78870.44
2022-10-09T12:36:14.367Z,78847.91
2022-10-09T12:38:44.358Z,78843.31
2022-10-09T12:41:22.948Z,78867.06
2022-10-09T12:43:55.902Z,78843.94
2022-10-09T12:46:40.337Z,78879.06
2022-10-09T12:49:20.957Z,78884.31
2022-10-09T12:51:56.745Z,78877.59
2022-10-09T12:54:27.446Z,78882.84
2022-10-09T12:56:58.803Z,78878.03
2022-10-09T12:59:29.951Z,78858.75
2022-10-09T13:02:01.514Z,78873.81
2022-10-09T13:04:33.591Z,78862.25
2022-10-09T13:07:17.033Z,78874.09
2022-10-09T13:09:47.410Z,78878.94
2022-10-09T13:12:22.926Z,78879.13
2022-10-09T13:15:00.708Z,78885.66
2022-10-09T13:17:34.598Z,78886.19
2022-10-09T13:20:11.969Z,78876.38
2022-10-09T13:22:41.284Z,78890.56
2022-10-09T13:25:10.763Z,78885.53
2022-10-09T13:27:41.062Z,78889.50
2022-10-09T13:30:12.511Z,78896.28
2022-10-09T13:32:41.754Z,78899.13
2022-10-09T13:35:10.821Z,78882.88
2022-10-09T13:37:39.897Z,78903.59
2022-10-09T13:40:13.854Z,78887.19
2022-10-09T13:42:44.114Z,78897.16
2022-10-09T13:45:13.275Z,78907.91
2022-10-09T13:47:42.130Z,78889.16
2022-10-09T13:50:14.127Z,78892.44
2022-10-09T13:52:43.394Z,78894.09
2022-10-09T13:55:13.014Z,78899.31
2022-10-09T13:57:41.978Z,78900.84
2022-10-09T14:00:11.501Z,78913.72
2022-10-09T14:02:43.245Z,78910.00
2022-10-09T14:05:13.258Z,78909.94
2022-10-09T14:07:41.927Z,78903.72
2022-10-09T14:10:11.162Z,78914.16
2022-10-09T14:12:39.930Z,78921.47
2022-10-09T14:15:09.059Z,78922.28
2022-10-09T14:17:37.674Z,78922.50
2022-10-09T14:20:07.620Z,78912.66
2022-10-09T14:22:36.426Z,78910.78
2022-10-09T14:25:05.715Z,78914.75
2022-10-09T14:30:09.100Z,78931.72
2022-10-09T14:32:37.893Z,78929.06
2022-10-09T14:35:07.075Z,78913.22
2022-10-09T14:37:43.063Z,78912.09
2022-10-09T14:40:12.724Z,78937.72
2022-10-09T14:42:41.384Z,78939.22
2022-10-09T14:45:11.244Z,78944.47
2022-10-09T14:47:39.979Z,78930.13
2022-10-09T14:50:09.429Z,78948.44
2022-10-09T14:52:38.159Z,78918.16
2022-10-09T14:55:07.245Z,78916.91
2022-10-09T14:57:36.025Z,78942.78
2022-10-09T15:00:06.466Z,78958.03
2022-10-09T15:02:35.519Z,78958.31
2022-10-09T15:05:05.048Z,78945.78
2022-10-09T15:07:35.282Z,78944.06
2022-10-09T15:10:04.001Z,78951.88
2022-10-09T15:12:32.796Z,78958.72
2022-10-09T15:15:01.437Z,78956.16
2022-10-09T15:17:30.169Z,78950.81
2022-10-09T15:19:58.785Z,78968.56
2022-10-09T15:22:28.118Z,78970.00
2022-10-09T15:24:56.663Z,78967.63
2022-10-09T15:27:25.669Z,78978.75
2022-10-09T15:29:54.585Z,78968.25
2022-10-09T15:32:24.929Z,78967.69
2022-10-09T15:34:53.724Z,78980.22
2022-10-09T15:37:22.599Z,78967.03
2022-10-09T15:39:51.450Z,78936.94
2022-10-09T15:42:20.083Z,78977.59
2022-10-09T15:44:49.413Z,78982.34
2022-10-09T15:47:27.120Z,78941.19
2022-10-09T15:50:07.561Z,78978.72
2022-10-09T15:52:36.240Z,78991.97
2022-10-09T15:55:05.265Z,78975.59
2022-10-09T15:57:33.973Z,78990.59
2022-10-09T16:00:02.770Z,78978.44
2022-10-09T16:02:32.545Z,78981.16
2022-10-09T16:05:01.454Z,78993.19
2022-10-09T16:07:30.105Z,78991.91
2022-10-09T16:09:59.825Z,78991.81
2022-10-09T16:12:29.112Z,78988.22
2022-10-09T16:14:57.857Z,79014.66
2022-10-09T16:17:26.497Z,79004.75
2022-10-09T16:19:55.272Z,78982.56
2022-10-09T16:22:23.949Z,79015.59
2022-10-09T16:24:52.728Z,78977.31
2022-10-09T16:27:21.479Z,79013.63
2022-10-09T16:29:50.418Z,78998.53
2022-10-09T16:32:19.151Z,78995.28
2022-10-09T16:34:50.993Z,78999.84
2022-10-09T16:37:19.860Z,78993.47
2022-10-09T16:39:50.186Z,78987.09
2022-10-09T16:42:19.111Z,79010.16
2022-10-09T16:44:49.123Z,79010.09
2022-10-09T16:47:18.440Z,79000.28
2022-10-09T16:49:47.200Z,78999.72
2022-10-09T16:52:16.321Z,79006.34
2022-10-09T16:54:44.956Z,79009.06
2022-10-09T16:57:14.071Z,78995.28
2022-10-09T16:59:45.110Z,78997.31
2022-10-09T17:02:14.825Z,79009.06
2022-10-09T17:04:44.077Z,79019.69
2022-10-09T17:07:13.667Z,79030.78
2022-10-09T17:09:42.655Z,79032.06
2022-10-09T17:12:16.714Z,79015.50
2022-10-09T17:14:45.737Z,79032.44
2022-10-09T17:17:14.717Z,79031.44
2022-10-09T17:19:44.479Z,79028.66
2022-10-09T17:22:13.318Z,79019.25
2022-10-09T17:24:42.128Z,79015.25
2022-10-09T17:27:10.912Z,79007.22
2022-10-09T17:29:39.990Z,79035.47
2022-10-09T17:32:10.289Z,79011.50
2022-10-09T17:34:43.892Z,79002.25
2022-10-09T17:37:13.617Z,79033.13
2022-10-09T17:39:44.792Z,79027.03
2022-10-09T17:42:15.743Z,79031.03
2022-10-09T17:44:44.475Z,79002.66
2022-10-09T17:47:13.589Z,79020.38
2022-10-09T17:49:42.379Z,79022.38
2022-10-09T17:52:11.324Z,79018.47
2022-10-09T17:54:40.088Z,79032.81
2022-10-09T17:57:12.886Z,79023.69
2022-10-09T17:59:41.910Z,79023.69
2022-10-09T18:02:11.874Z,79005.84
2022-10-09T18:04:40.722Z,78998.66
2022-10-09T18:07:09.255Z,79003.78
2022-10-09T18:09:38.342Z,79026.81
2022-10-09T18:12:07.037Z,79001.69
2022-10-09T18:14:36.094Z,79017.50
2022-10-09T18:17:07.788Z,79013.00
2022-10-09T18:19:36.604Z,79015.06
2022-10-09T18:22:05.362Z,79027.69
2022-10-09T18:24:34.407Z,79008.81
2022-10-09T18:27:03.070Z,79002.59
2022-10-09T18:29:31.920Z,79024.50
2022-10-09T18:32:00.559Z,79021.38
2022-10-09T18:34:29.393Z,79029.25
2022-10-09T18:36:59.391Z,79033.88
2022-10-09T18:39:29.930Z,79033.72
2022-10-09T18:41:59.213Z,79026.88
2022-10-09T18:44:28.317Z,79036.72
2022-10-09T18:46:59.911Z,79035.19
2022-10-09T18:49:32.651Z,79029.63
2022-10-09T18:52:03.592Z,79024.94
2022-10-09T18:54:32.645Z,79022.16
2022-10-09T18:57:02.544Z,79015.53
2022-10-09T18:59:31.937Z,79026.69
2022-10-09T19:02:00.551Z,79006.69
2022-10-09T19:04:30.027Z,79017.56
2022-10-09T19:06:58.906Z,79009.41
2022-10-09T19:09:28.393Z,79035.84
2022-10-09T19:11:57.527Z,79031.69
2022-10-09T19:14:26.640Z,79021.13
2022-10-09T19:16:55.290Z,79024.47
2022-10-09T19:19:24.196Z,79030.97
2022-10-09T19:21:53.381Z,79025.28
2022-10-09T19:24:22.486Z,79033.09
2022-10-09T19:26:51.133Z,79029.28
2022-10-09T19:29:20.024Z,79039.59
2022-10-09T19:31:48.727Z,79031.75
2022-10-09T19:34:18.055Z,79003.44
2022-10-09T19:36:50.635Z,79025.00
2022-10-09T19:39:20.478Z,79017.50
2022-10-09T19:41:50.569Z,79042.69
2022-10-09T19:44:20.084Z,79036.75
2022-10-09T19:46:49.309Z,79036.28
2022-10-09T19:49:18.430Z,79024.66
2022-10-09T19:51:47.270Z,79037.97
2022-10-09T19:54:16.168Z,79027.13
2022-10-09T19:56:44.758Z,79037.09
2022-10-09T19:59:14.257Z,79037.34
2022-10-09T20:01:42.894Z,79030.50
2022-10-09T20:04:12.882Z,79032.72
2022-10-09T20:06:43.359Z,79045.47
2022-10-09T20:09:13.050Z,79041.53
2022-10-09T20:11:42.077Z,79014.66
2022-10-09T20:14:11.762Z,79044.28
2022-10-09T20:16:40.917Z,79023.91
2022-10-09T20:19:09.730Z,79018.84
2022-10-09T20:21:38.542Z,79039.31
2022-10-09T20:24:07.533Z,79005.09
2022-10-09T20:26:39.684Z,79028.59
2022-10-09T20:29:11.232Z,79043.16
2022-10-09T20:31:40.049Z,79040.72
2022-10-09T20:34:09.329Z,79018.34
2022-10-09T20:36:40.021Z,79042.09
2022-10-09T20:39:13.326Z,79041.84
2022-10-09T20:41:43.965Z,79031.28
2022-10-09T20:44:13.372Z,79034.41
2022-10-09T20:46:42.636Z,79034.16
2022-10-09T20:49:15.025Z,79017.13
2022-10-09T20:51:44.356Z,79036.09
2022-10-09T20:54:17.642Z,79035.97
2022-10-09T20:56:47.451Z,79034.81
2022-10-09T20:59:17.364Z,79037.19
2022-10-09T21:01:47.285Z,79002.94
2022-10-09T21:04:16.144Z,79029.13
2022-10-09T21:06:45.366Z,79016.78
2022-10-09T21:09:14.198Z,79003.25
2022-10-09T21:11:44.700Z,79016.03
2022-10-09T21:14:13.684Z,79008.69
2022-10-09T21:16:42.319Z,79013.34
2022-10-09T21:19:13.098Z,79007.31
2022-10-09T21:21:41.841Z,79011.03
2022-10-09T21:24:11.140Z,78997.19
2022-10-09T21:26:40.224Z,78995.66
2022-10-09T21:29:09.137Z,78994.25
2022-10-09T21:31:37.927Z,79003.69
2022-10-09T21:34:07.127Z,79000.63
2022-10-09T21:37:16.487Z,79007.63
2022-10-09T21:39:40.233Z,78998.06
2022-10-09T21:42:09.072Z,78996.97
2022-10-09T21:44:37.818Z,79003.75
2022-10-09T21:47:06.472Z,79010.34
2022-10-09T21:49:35.462Z,79011.66
2022-10-09T21:52:04.057Z,79002.47
2022-10-09T21:54:32.946Z,79011.84
2022-10-09T21:57:02.238Z,79017.75
2022-10-09T21:59:31.150Z,79021.84
2022-10-09T22:01:59.946Z,78997.72
2022-10-09T22:04:28.968Z,78998.25
2022-10-09T22:06:57.563Z,78972.28
2022-10-09T22:09:26.603Z,78997.19
2022-10-09T22:11:55.500Z,79001.34
2022-10-09T22:14:24.720Z,78995.28
2022-10-09T22:16:53.294Z,78993.97
2022-10-09T22:19:22.311Z,78980.09
2022-10-09T22:21:50.893Z,78999.47
2022-10-09T22:24:19.686Z,78987.69
2022-10-09T22:30:12.591Z,78998.03
2022-10-09T22:33:00.526Z,79003.56
2022-10-09T22:35:29.792Z,79008.97
2022-10-09T22:37:59.197Z,78970.03
2022-10-09T22:40:30.511Z,79003.16
2022-10-09T22:42:59.614Z,79011.75
2022-10-09T22:45:28.445Z,78980.22
2022-10-09T22:47:58.290Z,78990.09
2022-10-09T22:50:27.047Z,78995.09
2022-10-09T22:52:56.238Z,78998.84
2022-10-09T22:58:51.684Z,78990.91
2022-10-09T23:01:34.095Z,78994.53
2022-10-09T23:04:11.721Z,78984.56
2022-10-09T23:06:41.880Z,78972.84
2022-10-09T23:09:25.838Z,78963.09
2022-10-09T23:11:56.160Z,78990.91
2022-10-09T23:14:25.904Z,78995.59
2022-10-09T23:16:54.966Z,78994.31
2022-10-09T23:20:00.796Z,78970.03
2022-10-09T23:22:42.037Z,78989.81
2022-10-09T23:25:11.524Z,78964.91
2022-10-09T23:27:40.516Z,79003.28
2022-10-09T23:30:10.113Z,78977.72
2022-10-09T23:32:38.976Z,79000.41
2022-10-09T23:35:08.517Z,79000.34
2022-10-09T23:37:37.355Z,79005.00
2022-10-09T23:40:06.821Z,78970.06
2022-10-09T23:42:35.716Z,78992.06
2022-10-09T23:45:05.235Z,78996.78
2022-10-09T23:47:34.177Z,78982.97
2022-10-09T23:50:03.279Z,79011.53
2022-10-09T23:53:28.367Z,79024.13
2022-10-09T23:55:57.442Z,79016.84
2022-10-09T23:58:26.368Z,79026.56
